createdAt,value
2023-09-27T00:01:05.369Z,8.07
2023-09-27T00:03:32.366Z,8.65
2023-09-27T00:05:59.301Z,9.25
2023-09-27T00:08:27.309Z,10.30
2023-09-27T00:10:55.113Z,8.55
2023-09-27T00:13:21.971Z,9.82
2023-09-27T00:15:49.095Z,8.60
2023-09-27T00:18:16.265Z,9.48
2023-09-27T00:20:43.168Z,9.18
2023-09-27T00:23:10.888Z,8.90
2023-09-27T00:25:37.920Z,9.43
2023-09-27T00:28:04.798Z,9.18
2023-09-27T00:30:31.711Z,8.63
2023-09-27T00:32:58.732Z,8.98
2023-09-27T00:35:25.745Z,8.60
2023-09-27T00:37:53.200Z,8.60
2023-09-27T00:40:23.233Z,9.77
2023-09-27T00:42:50.628Z,8.63
2023-09-27T00:45:18.733Z,7.53
2023-09-27T00:47:48.379Z,7.78
2023-09-27T00:50:16.093Z,9.10
2023-09-27T00:52:44.535Z,8.15
2023-09-27T00:55:13.502Z,7.90
2023-09-27T00:57:41.703Z,8.68
2023-09-27T01:00:11.620Z,8.75
2023-09-27T01:02:42.833Z,9.50
2023-09-27T01:05:10.370Z,9.35
2023-09-27T01:07:41.319Z,10.65
2023-09-27T01:10:09.677Z,8.85
2023-09-27T01:12:38.272Z,9.85
2023-09-27T01:15:07.693Z,9.70
2023-09-27T01:17:35.658Z,10.05
2023-09-27T01:20:02.618Z,12.55
2023-09-27T01:22:29.514Z,9.93
2023-09-27T01:24:57.782Z,9.60
2023-09-27T01:27:25.124Z,9.85
2023-09-27T01:29:52.148Z,10.77
2023-09-27T01:32:20.018Z,11.65
2023-09-27T01:34:46.956Z,11.07
2023-09-27T01:37:14.023Z,10.80
2023-09-27T01:39:41.036Z,12.52
2023-09-27T01:42:10.652Z,13.93
2023-09-27T01:44:37.566Z,12.77
2023-09-27T01:47:05.497Z,10.98
2023-09-27T01:49:32.526Z,13.95
2023-09-27T01:51:59.415Z,13.75
2023-09-27T01:54:26.227Z,14.77
2023-09-27T01:56:53.033Z,13.40
2023-09-27T01:59:20.116Z,15.48
2023-09-27T02:01:47.032Z,13.30
2023-09-27T02:04:13.951Z,18.40
2023-09-27T02:06:40.809Z,13.45
2023-09-27T02:09:07.755Z,15.57
2023-09-27T02:11:34.959Z,16.15
2023-09-27T02:14:05.282Z,14.65
2023-09-27T02:16:35.437Z,15.70
2023-09-27T02:19:05.877Z,16.10
2023-09-27T02:21:33.461Z,14.75
2023-09-27T02:24:00.507Z,16.20
2023-09-27T02:26:27.463Z,16.10
2023-09-27T02:28:54.638Z,16.38
2023-09-27T02:31:23.235Z,14.77
2023-09-27T02:33:50.327Z,12.98
2023-09-27T02:36:17.527Z,14.13
2023-09-27T02:38:44.601Z,11.80
2023-09-27T02:41:11.645Z,11.88
2023-09-27T02:43:38.487Z,11.48
2023-09-27T02:46:05.652Z,11.82
2023-09-27T02:48:32.729Z,11.63
2023-09-27T02:50:59.766Z,12.00
2023-09-27T02:53:29.480Z,11.00
2023-09-27T02:55:56.688Z,11.25
2023-09-27T02:58:23.760Z,11.60
2023-09-27T03:00:50.604Z,13.18
2023-09-27T03:03:20.777Z,12.90
2023-09-27T03:05:48.065Z,13.77
2023-09-27T03:08:15.571Z,13.98
2023-09-27T03:10:43.918Z,14.02
2023-09-27T03:13:11.194Z,12.95
2023-09-27T03:15:38.857Z,12.65
2023-09-27T03:18:06.771Z,12.90
2023-09-27T03:20:34.114Z,13.38
2023-09-27T03:23:01.157Z,12.90
2023-09-27T03:25:28.346Z,12.73
2023-09-27T03:27:55.796Z,12.45
2023-09-27T03:30:22.816Z,10.63
2023-09-27T03:32:49.952Z,14.77
2023-09-27T03:35:18.253Z,13.73
2023-09-27T03:37:46.317Z,13.77
2023-09-27T03:40:15.732Z,13.98
2023-09-27T03:42:47.237Z,15.20
2023-09-27T03:45:16.401Z,16.13
2023-09-27T03:47:46.013Z,16.90
2023-09-27T03:50:13.955Z,18.75
2023-09-27T03:52:44.474Z,18.80
2023-09-27T03:55:12.648Z,17.92
2023-09-27T03:57:41.401Z,19.63
2023-09-27T04:00:16.282Z,19.23
2023-09-27T04:02:44.258Z,19.73
2023-09-27T04:05:12.451Z,19.80
2023-09-27T04:07:40.624Z,19.08
2023-09-27T04:10:11.402Z,20.95
2023-09-27T04:12:38.856Z,19.95
2023-09-27T04:15:09.982Z,19.10
2023-09-27T04:17:38.568Z,18.42
2023-09-27T04:20:15.769Z,19.67
2023-09-27T04:22:44.959Z,18.88
2023-09-27T04:25:13.933Z,17.60
2023-09-27T04:27:42.303Z,18.13
2023-09-27T04:30:12.848Z,17.38
2023-09-27T04:32:47.464Z,16.33
2023-09-27T04:35:16.630Z,16.50
2023-09-27T04:37:43.609Z,16.65
2023-09-27T04:40:18.311Z,16.95
2023-09-27T04:42:46.714Z,17.70
2023-09-27T04:45:14.918Z,17.30
2023-09-27T04:47:46.399Z,17.65
2023-09-27T04:50:13.724Z,20.08
2023-09-27T04:52:41.300Z,15.95
2023-09-27T04:55:10.157Z,16.58
2023-09-27T04:57:37.409Z,16.25
2023-09-27T05:00:05.351Z,17.38
2023-09-27T05:02:32.704Z,16.63
2023-09-27T05:04:59.688Z,17.52
2023-09-27T05:07:26.591Z,18.88
2023-09-27T05:09:53.814Z,18.63
2023-09-27T05:12:20.979Z,17.50
2023-09-27T05:14:47.983Z,17.73
2023-09-27T05:17:15.509Z,20.30
2023-09-27T05:19:42.584Z,19.45
2023-09-27T05:22:09.516Z,17.73
2023-09-27T05:24:40.326Z,17.38
2023-09-27T05:27:08.649Z,18.30
2023-09-27T05:29:37.167Z,16.90
2023-09-27T05:32:04.983Z,19.45
2023-09-27T05:34:32.767Z,19.48
2023-09-27T05:37:00.133Z,21.98
2023-09-27T05:39:27.338Z,24.90
2023-09-27T05:41:54.073Z,17.63
2023-09-27T05:44:21.383Z,18.27
2023-09-27T05:46:49.097Z,21.40
2023-09-27T05:49:16.281Z,19.60
2023-09-27T05:51:44.467Z,22.40
2023-09-27T05:54:11.961Z,20.33
2023-09-27T05:56:39.533Z,18.13
2023-09-27T05:59:10.354Z,22.05
2023-09-27T06:01:38.723Z,22.05
2023-09-27T06:04:06.522Z,22.95
2023-09-27T06:06:33.348Z,23.50
2023-09-27T06:09:00.281Z,24.67
2023-09-27T06:11:27.286Z,23.35
2023-09-27T06:13:54.413Z,23.90
2023-09-27T06:16:22.939Z,30.92
2023-09-27T06:18:50.835Z,30.23
2023-09-27T06:21:18.633Z,30.75
2023-09-27T06:23:46.181Z,30.95
2023-09-27T06:26:13.720Z,31.48
2023-09-27T06:28:41.051Z,30.85
2023-09-27T06:31:08.355Z,30.55
2023-09-27T06:33:40.593Z,32.13
2023-09-27T06:36:11.956Z,33.97
2023-09-27T06:38:39.673Z,35.22
2023-09-27T06:41:09.300Z,31.05
2023-09-27T06:43:36.393Z,31.17
2023-09-27T06:46:11.630Z,33.53
2023-09-27T06:48:39.332Z,30.23
2023-09-27T06:51:07.316Z,35.65
2023-09-27T06:53:34.931Z,31.67
2023-09-27T06:56:03.867Z,35.95
2023-09-27T06:58:31.489Z,26.30
2023-09-27T07:00:58.939Z,28.42
2023-09-27T07:03:26.975Z,27.52
2023-09-27T07:05:54.984Z,25.90
2023-09-27T07:08:22.277Z,26.60
2023-09-27T07:10:49.875Z,24.05
2023-09-27T07:13:17.197Z,23.48
2023-09-27T07:15:47.548Z,27.30
2023-09-27T07:18:14.883Z,21.90
2023-09-27T07:20:43.508Z,22.67
2023-09-27T07:23:17.128Z,22.02
2023-09-27T07:25:45.681Z,19.77
2023-09-27T07:28:12.775Z,20.17
2023-09-27T07:30:40.301Z,24.90
2023-09-27T07:33:10.190Z,21.10
2023-09-27T07:35:43.094Z,25.10
2023-09-27T07:38:13.249Z,21.08
2023-09-27T07:40:40.965Z,19.65
2023-09-27T07:43:08.164Z,20.13
2023-09-27T07:45:37.660Z,20.55
2023-09-27T07:48:05.143Z,19.92
2023-09-27T07:50:32.890Z,21.77
2023-09-27T07:53:00.645Z,21.45
2023-09-27T07:55:28.120Z,24.17
2023-09-27T07:57:55.719Z,25.50
2023-09-27T08:00:28.717Z,28.55
2023-09-27T08:02:59.003Z,24.80
2023-09-27T08:05:26.682Z,24.40
2023-09-27T08:07:53.931Z,26.13
2023-09-27T08:10:22.415Z,26.85
2023-09-27T08:12:49.855Z,25.20
2023-09-27T08:15:19.416Z,24.48
2023-09-27T08:17:49.253Z,25.98
2023-09-27T08:20:16.700Z,23.88
2023-09-27T08:22:43.766Z,25.55
2023-09-27T08:25:17.585Z,18.98
2023-09-27T08:27:45.798Z,17.52
2023-09-27T08:30:13.738Z,16.77
2023-09-27T08:32:42.704Z,16.38
2023-09-27T08:35:10.758Z,13.13
2023-09-27T08:37:38.097Z,13.23
2023-09-27T08:40:14.802Z,13.30
2023-09-27T08:42:43.473Z,11.02
2023-09-27T08:45:20.294Z,13.05
2023-09-27T08:47:47.662Z,11.05
2023-09-27T08:50:16.206Z,12.15
2023-09-27T08:52:48.432Z,11.63
2023-09-27T08:55:18.632Z,10.73
2023-09-27T08:57:50.166Z,13.95
2023-09-27T09:00:21.693Z,13.50
2023-09-27T09:02:50.786Z,10.88
2023-09-27T09:05:19.664Z,12.73
2023-09-27T09:07:46.766Z,11.48
2023-09-27T09:10:15.359Z,11.75
2023-09-27T09:12:48.384Z,11.40
2023-09-27T09:15:41.555Z,11.65
2023-09-27T09:18:16.129Z,11.23
2023-09-27T09:20:55.876Z,10.55
2023-09-27T09:23:31.725Z,11.60
2023-09-27T09:26:00.339Z,11.38
2023-09-27T09:28:27.876Z,11.70
2023-09-27T09:30:57.504Z,14.23
2023-09-27T09:33:37.915Z,14.35
2023-09-27T09:36:05.208Z,11.50
2023-09-27T09:38:33.398Z,15.57
2023-09-27T09:41:03.525Z,11.63
2023-09-27T09:43:37.878Z,11.75
2023-09-27T09:46:10.222Z,12.02
2023-09-27T09:48:39.799Z,13.73
2023-09-27T09:51:09.068Z,12.00
2023-09-27T09:53:42.345Z,13.50
2023-09-27T09:58:48.288Z,13.85
2023-09-27T10:01:22.661Z,15.10
2023-09-27T10:03:52.719Z,12.73
2023-09-27T10:06:32.436Z,15.57
2023-09-27T10:09:16.137Z,12.38
2023-09-27T10:11:47.931Z,12.65
2023-09-27T10:14:17.710Z,13.05
2023-09-27T10:16:45.149Z,14.27
2023-09-27T10:19:14.615Z,14.45
2023-09-27T10:22:08.304Z,13.43
2023-09-27T10:24:38.600Z,11.30
2023-09-27T10:27:05.644Z,14.63
2023-09-27T10:29:32.814Z,11.00
2023-09-27T10:32:01.942Z,11.77
2023-09-27T10:34:29.170Z,10.18
2023-09-27T10:37:17.449Z,10.38
2023-09-27T10:40:30.414Z,8.98
2023-09-27T10:42:57.806Z,12.70
2023-09-27T10:45:25.756Z,10.07
2023-09-27T10:47:55.230Z,10.20
2023-09-27T10:50:30.973Z,10.32
2023-09-27T10:55:25.649Z,9.60
2023-09-27T10:57:53.921Z,9.75
2023-09-27T11:00:22.635Z,8.68
2023-09-27T11:02:49.854Z,9.32
2023-09-27T11:05:25.724Z,8.63
2023-09-27T11:07:52.881Z,8.68
2023-09-27T11:10:31.021Z,9.68
2023-09-27T11:13:12.095Z,9.77
2023-09-27T11:15:40.173Z,8.90
2023-09-27T11:18:12.019Z,8.68
2023-09-27T11:20:41.106Z,8.25
2023-09-27T11:23:08.366Z,7.95
2023-09-27T11:25:37.733Z,16.17
2023-09-27T11:28:05.693Z,8.50
2023-09-27T11:30:35.052Z,7.88
2023-09-27T11:33:06.284Z,8.10
2023-09-27T11:35:33.532Z,9.43
2023-09-27T11:38:07.077Z,6.82
2023-09-27T11:40:35.026Z,7.10
2023-09-27T11:43:02.792Z,6.63
2023-09-27T11:45:48.138Z,6.32
2023-09-27T11:48:15.888Z,5.57
2023-09-27T11:50:43.159Z,6.20
2023-09-27T11:53:10.256Z,5.25
2023-09-27T11:55:37.289Z,5.28
2023-09-27T11:58:04.415Z,7.55
2023-09-27T12:00:31.736Z,6.60
2023-09-27T12:02:59.031Z,6.25
2023-09-27T12:05:28.801Z,5.90
2023-09-27T12:07:56.644Z,6.22
2023-09-27T12:10:23.595Z,5.68
2023-09-27T12:12:50.636Z,6.90
2023-09-27T12:15:17.647Z,8.13
2023-09-27T12:17:44.883Z,8.30
2023-09-27T12:20:26.794Z,5.45
2023-09-27T12:22:59.114Z,5.07
2023-09-27T12:25:28.270Z,4.45
2023-09-27T12:27:55.281Z,6.72
2023-09-27T12:30:22.186Z,3.45
2023-09-27T12:32:49.531Z,3.13
2023-09-27T12:35:16.500Z,3.20
2023-09-27T12:37:43.284Z,4.50
2023-09-27T12:40:10.660Z,3.20
2023-09-27T12:42:37.384Z,3.90
2023-09-27T12:45:04.875Z,5.28
2023-09-27T12:47:33.106Z,4.18
2023-09-27T12:50:04.463Z,3.72
2023-09-27T12:52:32.315Z,3.75
2023-09-27T12:54:59.269Z,3.60
2023-09-27T12:57:26.304Z,3.53
2023-09-27T12:59:53.127Z,3.78
2023-09-27T13:02:20.095Z,4.78
2023-09-27T13:04:47.104Z,6.22
2023-09-27T13:07:15.551Z,4.57
2023-09-27T13:09:43.180Z,4.65
2023-09-27T13:12:10.135Z,5.05
2023-09-27T13:14:37.005Z,3.58
2023-09-27T13:17:03.854Z,4.70
2023-09-27T13:19:32.641Z,3.10
2023-09-27T13:21:59.798Z,4.88
2023-09-27T13:24:26.896Z,4.82
2023-09-27T13:26:53.711Z,4.68
2023-09-27T13:29:20.712Z,3.35
2023-09-27T13:31:48.351Z,4.53
2023-09-27T13:34:15.693Z,5.70
2023-09-27T13:36:43.079Z,4.13
2023-09-27T13:39:18.531Z,3.70
2023-09-27T13:41:47.421Z,4.05
2023-09-27T13:44:14.678Z,7.82
2023-09-27T13:46:42.513Z,4.38
2023-09-27T13:49:09.796Z,4.75
2023-09-27T13:51:37.714Z,5.03
2023-09-27T13:54:06.274Z,3.88
2023-09-27T13:56:33.421Z,3.80
2023-09-27T13:59:00.519Z,3.25
2023-09-27T14:01:28.572Z,4.65
2023-09-27T14:03:55.504Z,4.05
2023-09-27T14:06:22.608Z,4.18
2023-09-27T14:08:49.687Z,5.45
2023-09-27T14:11:17.928Z,4.82
2023-09-27T14:13:46.444Z,3.80
2023-09-27T14:16:13.408Z,4.55
2023-09-27T14:18:40.469Z,7.07
2023-09-27T14:21:08.086Z,3.90
2023-09-27T14:23:36.803Z,6.63
2023-09-27T14:26:04.080Z,6.30
2023-09-27T14:28:31.035Z,4.70
2023-09-27T14:30:57.932Z,3.85
2023-09-27T14:33:25.078Z,4.18
2023-09-27T14:35:53.469Z,3.50
2023-09-27T14:38:21.387Z,4.38
2023-09-27T14:40:48.748Z,3.72
2023-09-27T14:43:15.565Z,5.20
2023-09-27T14:45:42.732Z,4.70
2023-09-27T14:48:11.315Z,3.90
2023-09-27T14:50:38.550Z,7.63
2023-09-27T14:53:05.795Z,3.50
2023-09-27T14:55:32.788Z,5.65
2023-09-27T14:58:00.098Z,5.63
2023-09-27T15:00:27.233Z,4.43
2023-09-27T15:02:55.151Z,7.22
2023-09-27T15:05:22.514Z,5.45
2023-09-27T15:07:50.230Z,8.43
2023-09-27T15:10:17.115Z,6.13
2023-09-27T15:12:44.291Z,6.57
2023-09-27T15:15:12.792Z,4.30
2023-09-27T15:17:41.169Z,5.40
2023-09-27T15:20:09.296Z,6.32
2023-09-27T15:22:36.375Z,8.15
2023-09-27T15:25:04.427Z,4.28
2023-09-27T15:27:31.366Z,3.22
2023-09-27T15:29:58.202Z,4.25
2023-09-27T15:32:25.143Z,3.78
2023-09-27T15:34:52.199Z,4.95
2023-09-27T15:37:19.028Z,6.22
2023-09-27T15:39:45.766Z,4.85
2023-09-27T15:42:12.698Z,5.10
2023-09-27T15:44:40.061Z,6.35
2023-09-27T15:47:07.307Z,9.20
2023-09-27T15:49:34.243Z,7.35
2023-09-27T15:52:01.024Z,4.80
2023-09-27T15:54:27.708Z,7.03
2023-09-27T15:56:54.560Z,8.07
2023-09-27T15:59:21.518Z,5.00
2023-09-27T16:01:48.376Z,4.25
2023-09-27T16:04:15.314Z,4.20
2023-09-27T16:06:43.527Z,4.80
2023-09-27T16:09:12.005Z,5.20
2023-09-27T16:11:40.019Z,11.90
2023-09-27T16:14:07.769Z,4.07
2023-09-27T16:16:37.342Z,5.82
2023-09-27T16:19:04.495Z,3.83
2023-09-27T16:21:31.233Z,4.72
2023-09-27T16:23:58.453Z,8.65
2023-09-27T16:26:25.528Z,4.00
2023-09-27T16:28:52.561Z,4.28
2023-09-27T16:31:20.073Z,5.40
2023-09-27T16:33:48.052Z,4.88
2023-09-27T16:36:18.416Z,6.93
2023-09-27T16:38:45.651Z,4.93
2023-09-27T16:41:12.533Z,5.80
2023-09-27T16:43:50.692Z,5.63
2023-09-27T16:46:17.637Z,5.80
2023-09-27T16:48:44.421Z,7.50
2023-09-27T16:51:11.765Z,6.10
2023-09-27T16:53:38.578Z,5.10
2023-09-27T16:56:05.697Z,6.85
2023-09-27T16:58:33.056Z,8.80
2023-09-27T17:01:02.270Z,5.93
2023-09-27T17:03:29.244Z,5.82
2023-09-27T17:05:56.578Z,7.18
2023-09-27T17:08:23.538Z,9.27
2023-09-27T17:10:50.899Z,9.35
2023-09-27T17:13:18.853Z,10.98
2023-09-27T17:15:45.671Z,11.10
2023-09-27T17:18:12.513Z,13.20
2023-09-27T17:20:39.334Z,13.10
2023-09-27T17:23:06.099Z,11.40
2023-09-27T17:25:33.054Z,8.48
2023-09-27T17:27:59.879Z,7.15
2023-09-27T17:30:26.721Z,6.97
2023-09-27T17:32:53.618Z,10.00
2023-09-27T17:35:21.912Z,10.75
2023-09-27T17:37:48.732Z,7.13
2023-09-27T17:40:15.691Z,7.22
2023-09-27T17:42:43.655Z,6.60
2023-09-27T17:45:10.539Z,6.25
2023-09-27T17:47:37.411Z,8.88
2023-09-27T17:50:04.554Z,6.45
2023-09-27T17:52:31.405Z,6.22
2023-09-27T17:54:58.373Z,7.10
2023-09-27T17:57:25.647Z,6.53
2023-09-27T17:59:52.894Z,9.55
2023-09-27T18:02:21.641Z,8.48
2023-09-27T18:04:48.454Z,7.63
2023-09-27T18:07:15.428Z,7.50
2023-09-27T18:09:42.124Z,10.77
2023-09-27T18:12:09.019Z,7.25
2023-09-27T18:14:37.381Z,6.72
2023-09-27T18:17:04.406Z,7.45
2023-09-27T18:19:31.277Z,8.13
2023-09-27T18:21:58.356Z,8.32
2023-09-27T18:24:25.520Z,9.40
2023-09-27T18:26:52.525Z,8.75
2023-09-27T18:29:19.475Z,8.52
2023-09-27T18:31:46.648Z,7.35
2023-09-27T18:34:14.883Z,7.80
2023-09-27T18:36:41.851Z,9.25
2023-09-27T18:39:08.664Z,8.70
2023-09-27T18:41:35.608Z,7.80
2023-09-27T18:44:04.486Z,7.40
2023-09-27T18:46:32.586Z,9.57
2023-09-27T18:48:59.525Z,11.20
2023-09-27T18:51:26.552Z,8.80
2023-09-27T18:53:54.373Z,8.07
2023-09-27T18:56:23.438Z,6.93
2023-09-27T18:58:50.658Z,8.02
2023-09-27T19:01:17.794Z,6.50
2023-09-27T19:03:45.477Z,7.97
2023-09-27T19:06:15.618Z,8.90
2023-09-27T19:08:42.702Z,7.13
2023-09-27T19:11:09.964Z,7.10
2023-09-27T19:13:37.675Z,8.63
2023-09-27T19:16:06.659Z,7.40
2023-09-27T19:18:34.040Z,7.05
2023-09-27T19:21:01.026Z,7.55
2023-09-27T19:23:28.275Z,7.40
2023-09-27T19:25:55.791Z,8.25
2023-09-27T19:28:23.005Z,11.55
2023-09-27T19:30:51.037Z,9.48
2023-09-27T19:33:18.081Z,8.00
2023-09-27T19:35:46.095Z,7.20
2023-09-27T19:38:13.304Z,7.47
2023-09-27T19:40:40.588Z,7.50
2023-09-27T19:43:07.354Z,7.43
2023-09-27T19:45:34.560Z,7.20
2023-09-27T19:48:01.941Z,11.32
2023-09-27T19:50:28.776Z,12.30
2023-09-27T19:52:55.957Z,6.75
2023-09-27T19:55:23.069Z,7.28
2023-09-27T19:57:50.247Z,7.38
2023-09-27T20:00:19.102Z,7.53
2023-09-27T20:02:46.573Z,7.38
2023-09-27T20:05:16.461Z,8.02
2023-09-27T20:07:47.216Z,9.90
2023-09-27T20:10:18.191Z,8.32
2023-09-27T20:12:45.071Z,8.95
2023-09-27T20:15:13.419Z,9.48
2023-09-27T20:17:40.680Z,9.18
2023-09-27T20:20:08.807Z,8.52
2023-09-27T20:22:35.913Z,9.30
2023-09-27T20:25:04.444Z,7.78
2023-09-27T20:27:31.502Z,8.02
2023-09-27T20:29:58.511Z,8.98
2023-09-27T20:32:25.514Z,11.77
2023-09-27T20:34:53.539Z,8.63
2023-09-27T20:37:21.038Z,8.63
2023-09-27T20:39:47.986Z,11.70
2023-09-27T20:42:15.898Z,10.45
2023-09-27T20:44:42.880Z,10.93
2023-09-27T20:47:09.893Z,11.07
2023-09-27T20:49:37.050Z,8.10
2023-09-27T20:52:04.293Z,9.43
2023-09-27T20:54:31.064Z,8.50
2023-09-27T20:56:58.186Z,10.65
2023-09-27T20:59:25.594Z,10.50
2023-09-27T21:01:53.472Z,11.23
2023-09-27T21:04:21.465Z,10.68
2023-09-27T21:06:50.204Z,11.25
2023-09-27T21:09:17.094Z,13.32
2023-09-27T21:11:43.967Z,12.27
2023-09-27T21:14:11.046Z,11.90
2023-09-27T21:16:38.359Z,9.82
2023-09-27T21:19:05.196Z,10.48
2023-09-27T21:21:33.210Z,11.10
2023-09-27T21:24:00.125Z,10.05
2023-09-27T21:26:28.022Z,12.77
2023-09-27T21:28:55.329Z,19.25
2023-09-27T21:31:24.867Z,18.33
2023-09-27T21:33:52.235Z,12.25
2023-09-27T21:36:19.456Z,11.35
2023-09-27T21:38:46.406Z,9.57
2023-09-27T21:41:13.458Z,15.85
2023-09-27T21:43:40.469Z,12.85
2023-09-27T21:46:20.642Z,13.15
2023-09-27T21:48:49.190Z,12.23
2023-09-27T21:51:17.025Z,11.32
2023-09-27T21:53:44.162Z,12.25
2023-09-27T21:56:11.688Z,9.70
2023-09-27T21:58:38.749Z,11.48
2023-09-27T22:01:11.339Z,13.05
2023-09-27T22:03:38.804Z,11.13
2023-09-27T22:06:09.897Z,10.93
2023-09-27T22:08:36.809Z,13.82
2023-09-27T22:11:06.476Z,11.40
2023-09-27T22:13:39.639Z,11.35
2023-09-27T22:16:11.416Z,12.40
2023-09-27T22:18:39.960Z,11.82
2023-09-27T22:21:18.861Z,12.73
2023-09-27T22:23:47.160Z,11.10
2023-09-27T22:26:18.959Z,9.65
2023-09-27T22:28:48.567Z,11.82
2023-09-27T22:34:41.160Z,10.93
2023-09-27T22:37:09.391Z,9.70
2023-09-27T22:39:41.197Z,10.40
2023-09-27T22:45:31.520Z,10.82
2023-09-27T22:47:59.916Z,9.07
2023-09-27T22:50:45.477Z,10.43
2023-09-27T22:53:14.571Z,9.57
2023-09-27T22:55:51.227Z,10.73
2023-09-27T22:58:23.248Z,11.43
2023-09-27T23:00:58.634Z,12.02
2023-09-27T23:03:30.989Z,11.30
2023-09-27T23:05:58.686Z,12.23
2023-09-27T23:08:28.849Z,12.68
2023-09-27T23:10:58.142Z,14.57
2023-09-27T23:13:36.675Z,13.55
2023-09-27T23:16:24.734Z,14.73
2023-09-27T23:18:52.444Z,13.65
2023-09-27T23:21:31.386Z,14.35
2023-09-27T23:24:00.615Z,12.68
2023-09-27T23:26:50.354Z,13.40
2023-09-27T23:29:29.377Z,15.23
2023-09-27T23:31:59.903Z,14.27
2023-09-27T23:34:28.319Z,14.45
2023-09-27T23:37:13.634Z,13.77
2023-09-27T23:39:44.730Z,14.82
2023-09-27T23:42:24.617Z,13.85
2023-09-27T23:45:12.559Z,15.73
2023-09-27T23:47:45.746Z,16.23
2023-09-27T23:50:17.972Z,17.13
2023-09-27T23:52:47.735Z,16.67
2023-09-27T23:55:16.766Z,15.15
2023-09-27T23:57:53.601Z,15.77
